Date,TemperatureHighF,TemperatureAvgF,TemperatureLowF,DewpointHighF,DewpointAvgF,DewpointLowF,HumidityHigh,HumidityAvg,HumidityLow,PressureMaxIn,PressureMinIn,WindSpeedMaxMPH,WindSpeedAvgMPH,GustSpeedMaxMPH,PrecipitationSumIn
2013-1-1,53.9,46.2,41.0,39.1,33.7,29.8,75,62,49,30.24,30.19,10,1,10,0.00
2013-1-2,56.3,47.8,42.4,35.5,31.0,27.2,62,52,43,30.21,30.11,12,2,12,0.00
2013-1-3,57.3,46.8,39.5,42.2,34.6,28.9,73,63,54,30.24,30.13,9,0,9,0.00
2013-1-4,57.7,49.2,42.6,38.0,34.5,31.2,68,57,45,30.26,30.15,11,1,11,0.00
2013-1-5,52.5,47.5,43.1,45.1,40.4,34.6,85,76,66,30.23,30.04,8,1,8,0.00
2013-1-6,51.6,46.8,43.5,45.1,41.4,39.2,86,82,74,30.17,30.03,13,0,13,0.00
2013-1-7,57.7,48.5,42.0,47.6,42.3,37.5,86,79,68,30.24,30.13,6,0,6,0.00
2013-1-8,61.5,51.2,44.7,49.2,43.5,40.2,87,75,62,30.22,30.11,7,0,7,0.00
2013-1-9,51.4,47.4,42.4,46.5,40.4,34.2,84,77,67,30.13,29.96,8,1,8,0.00
2013-1-10,52.3,44.4,39.3,37.4,34.0,31.5,78,67,53,30.16,30.05,5,0,5,0.00
2013-1-11,53.2,44.7,39.9,39.7,34.3,30.3,76,67,58,30.22,30.10,6,0,6,0.00
2013-1-12,52.5,44.4,37.5,34.6,30.5,24.7,76,59,42,30.22,30.12,7,0,7,0.00
2013-1-13,52.5,43.1,36.1,32.6,25.5,20.3,58,50,38,30.24,30.16,6,0,6,0.00
2013-1-14,53.4,44.0,36.3,30.6,23.1,18.1,57,44,35,30.37,30.19,8,0,8,0.00
2013-1-15,54.6,45.1,37.9,31.1,27.8,23.9,61,51,40,30.45,30.35,7,0,7,0.00
2013-1-16,58.6,47.3,38.8,37.5,31.3,26.9,68,55,40,30.40,30.22,10,0,10,0.00
2013-1-17,62.9,53.0,45.1,38.0,31.3,25.7,63,45,34,30.24,30.13,10,1,10,0.00
2013-1-18,63.5,54.4,47.6,35.1,31.7,25.7,59,43,32,30.20,30.12,12,2,12,0.00
2013-1-19,63.3,53.4,42.0,39.5,30.5,26.0,64,42,32,30.22,30.13,15,2,15,0.00
2013-1-20,65.8,53.8,43.5,37.0,30.8,25.9,66,43,32,30.20,30.11,16,1,16,0.00
2013-1-21,65.1,53.4,43.7,40.4,33.4,26.0,59,47,39,30.16,30.06,13,1,13,0.00
2013-1-22,64.5,54.7,47.3,45.4,39.2,33.8,68,56,47,30.09,29.98,12,1,12,0.00
2013-1-23,54.5,52.3,49.2,48.3,44.3,40.3,85,75,63,30.08,29.93,10,0,10,0.00
2013-1-24,58.8,53.7,49.4,50.9,47.8,44.9,85,81,74,30.17,30.03,10,1,10,0.00
2013-1-25,65.3,57.2,51.9,55.0,50.1,47.2,85,78,65,30.16,30.03,6,0,6,0.00
2013-1-26,59.7,52.3,46.0,47.9,42.7,37.3,87,71,52,30.06,29.97,8,0,8,0.00
2013-1-27,61.7,48.4,41.5,41.6,36.9,34.1,76,65,46,30.15,30.04,7,0,7,0.00
2013-1-28,59.7,48.9,42.6,42.9,38.2,34.2,77,67,51,30.27,30.14,4,0,4,0.00
2013-1-29,59.5,50.1,43.1,43.4,39.5,35.7,77,68,53,30.34,30.25,4,0,4,0.00
2013-1-30,64.7,52.9,45.6,47.4,42.2,38.4,80,68,51,30.32,30.24,7,0,7,0.00
2013-1-31,66.7,54.6,46.7,49.0,42.9,38.8,76,65,52,30.27,30.16,9,1,9,0.00
2013-2-1,66.9,56.0,48.9,48.2,43.3,39.6,75,63,50,30.20,30.11,11,1,11,0.00
2013-2-2,60.0,51.6,48.0,49.0,44.4,41.0,83,77,65,30.28,30.18,6,1,6,0.00
2013-2-3,60.6,50.5,42.6,46.7,41.9,37.1,82,73,59,30.24,30.13,7,0,7,0.00
2013-2-4,58.1,49.9,46.2,49.6,44.4,41.9,86,81,71,30.16,30.05,7,1,7,0.00
2013-2-5,57.9,51.1,46.0,46.9,42.7,38.9,78,73,66,30.14,30.05,7,0,7,0.00
2013-2-6,62.9,50.0,42.9,47.2,40.2,36.8,80,70,53,30.18,30.11,6,0,6,0.00
2013-2-7,56.4,48.9,45.3,45.6,40.7,37.8,84,73,59,30.15,29.96,11,1,11,0.00
2013-2-8,54.5,47.6,43.1,42.1,38.8,34.6,81,72,58,30.00,29.92,10,0,10,0.00
2013-2-9,62.2,48.3,39.5,39.5,34.0,31.5,75,59,38,30.07,29.97,6,0,6,0.00
2013-2-10,64.0,49.6,41.3,43.0,36.6,30.7,73,62,45,30.10,30.01,6,0,6,0.00
2013-2-11,65.8,51.4,42.4,43.7,36.6,29.5,81,59,35,30.22,30.04,76,1,76,0.00
2013-2-12,64.0,52.3,45.5,44.6,41.8,38.5,81,69,46,30.34,30.21,10,1,10,0.00
2013-2-13,60.2,49.8,44.9,48.2,42.9,38.3,84,77,62,30.32,30.20,9,1,9,0.00
2013-2-14,73.7,56.0,45.8,51.7,45.2,40.8,86,69,45,30.23,30.14,7,0,7,0.00
2013-2-15,71.7,61.1,50.7,45.4,39.9,35.8,66,46,38,30.25,30.17,14,2,14,0.00
2013-2-16,73.5,59.2,50.5,50.5,44.3,37.6,76,59,43,30.21,30.03,7,1,7,0.00
2013-2-17,62.2,52.3,46.5,48.0,43.4,41.0,82,72,54,30.04,29.97,8,2,8,0.00
2013-2-18,53.9,48.9,46.2,41.7,39.6,35.5,83,71,58,30.02,29.94,16,2,16,0.00
2013-2-19,48.0,45.5,40.8,41.9,37.7,33.4,82,74,64,29.95,29.73,10,1,10,0.00
2013-2-20,58.8,47.3,39.0,41.2,36.5,32.4,77,67,50,30.04,29.82,6,0,6,0.00
2013-2-21,62.6,49.7,40.4,40.2,36.1,33.0,77,61,41,30.15,30.02,7,0,7,0.00
2013-2-22,60.6,50.2,43.1,44.2,40.1,34.5,76,69,51,30.24,30.14,11,1,11,0.00
2013-2-23,61.3,51.7,45.1,43.3,38.6,33.8,80,62,43,30.24,30.14,5,0,5,0.00
2013-2-24,66.0,51.3,42.0,41.0,34.7,28.7,73,55,34,30.23,30.16,7,1,7,0.00
2013-2-25,64.5,52.6,45.3,47.1,42.1,37.8,82,69,52,30.25,30.16,7,1,7,0.00
2013-2-26,67.8,52.8,44.4,42.4,36.5,31.5,69,56,30,30.20,30.13,10,1,10,0.00
2013-2-27,65.3,52.8,44.4,47.9,41.2,35.8,77,65,49,30.35,30.18,8,1,8,0.00
2013-2-28,64.0,54.7,48.5,51.3,46.4,41.6,81,74,64,30.43,30.34,10,1,10,0.00
2013-3-1,74.8,58.4,47.8,53.9,47.7,42.8,85,69,46,30.41,30.22,6,0,6,0.00
2013-3-2,68.7,57.2,51.2,54.6,47.8,44.2,82,71,57,30.23,30.06,8,1,8,0.00
2013-3-3,60.4,51.9,48.2,49.8,45.7,42.5,86,80,66,30.08,30.03,13,4,13,0.00
2013-3-4,55.9,49.2,45.5,45.5,42.3,38.7,84,77,65,30.13,30.03,11,2,11,0.00
2013-3-5,57.7,49.7,42.8,44.0,40.7,37.0,84,72,57,30.04,29.80,17,4,17,0.00
2013-3-6,55.9,50.5,44.9,45.2,42.4,38.6,87,74,62,30.05,29.81,22,2,22,0.00
2013-3-7,58.8,50.5,44.7,43.4,41.2,38.6,82,71,54,29.97,29.83,7,0,7,0.00
2013-3-8,62.4,51.7,44.7,44.1,40.7,37.6,78,67,50,30.02,29.80,13,0,13,0.00
2013-3-9,66.0,53.1,42.4,47.9,41.6,36.0,80,66,50,30.29,30.02,7,0,7,0.00
2013-3-10,66.7,54.0,45.3,49.2,43.5,38.5,82,69,47,30.32,30.24,9,1,9,0.00
2013-3-11,69.0,54.2,45.6,51.8,45.1,39.7,83,73,50,30.24,30.10,10,1,10,0.00
2013-3-12,68.0,55.7,48.5,53.6,47.7,43.7,85,75,58,30.14,30.07,7,1,7,0.00
2013-3-13,78.6,59.8,48.2,58.0,49.4,42.7,85,70,45,30.14,30.06,6,0,6,0.00
2013-3-14,60.9,54.3,49.2,50.9,47.0,43.7,85,77,67,30.16,30.07,7,1,7,0.00
2013-3-15,65.6,55.2,48.5,51.2,46.8,43.1,83,74,55,30.11,30.03,8,1,8,0.00
2013-3-16,66.7,56.0,48.3,51.2,46.5,42.3,86,72,50,30.11,30.01,10,2,10,0.00
2013-3-17,67.2,55.4,47.1,47.2,42.7,39.2,75,63,46,30.14,30.03,8,1,8,0.00
2013-3-18,62.4,52.8,47.3,48.7,43.6,39.0,79,72,56,30.11,30.01,12,2,12,0.00
2013-3-19,62.9,53.7,49.1,49.0,44.6,41.9,82,72,53,30.14,30.03,8,1,8,0.00
2013-3-20,56.8,52.9,50.5,51.1,47.7,44.2,87,83,72,30.11,30.04,9,1,9,0.00
2013-3-21,63.3,53.1,43.8,47.8,42.9,38.4,84,69,53,30.10,30.01,8,0,8,0.00
2013-3-22,69.6,55.7,45.1,41.3,38.3,35.8,74,55,31,30.09,30.02,5,0,5,0.00
2013-3-23,69.6,55.8,46.0,41.5,37.6,32.0,69,52,31,30.11,30.05,6,1,6,0.00
2013-3-24,66.0,53.6,47.3,48.2,43.6,39.7,79,70,49,30.08,29.97,11,2,11,0.00
2013-3-25,58.8,51.0,46.2,46.2,42.5,40.7,82,73,61,30.01,29.92,12,3,12,0.00
2013-3-26,60.9,53.1,47.1,48.0,43.6,40.3,79,71,61,29.99,29.93,13,2,13,0.00
2013-3-27,60.9,54.5,49.2,51.2,47.5,42.9,85,77,70,30.00,29.92,14,1,14,0.00
2013-3-28,67.6,58.4,53.7,54.5,50.6,47.3,85,76,62,30.08,29.98,7,1,7,0.00
2013-3-29,76.2,58.5,49.6,56.2,49.1,44.3,85,72,48,30.07,30.01,10,2,10,0.00
2013-3-30,66.0,56.7,51.4,53.3,49.5,46.8,87,78,58,30.06,29.98,10,2,10,0.00
2013-3-31,64.2,57.8,53.4,54.9,51.4,49.0,87,80,64,30.05,29.96,9,1,9,0.00
2013-4-1,64.4,57.2,52.8,54.1,50.6,45.8,88,79,66,30.14,30.03,9,1,9,0.00
2013-4-2,64.0,54.6,49.6,53.1,48.1,44.3,86,79,66,30.17,30.08,12,2,12,0.00
2013-4-3,74.3,56.0,50.1,57.8,48.8,45.5,86,78,52,30.12,29.99,12,2,12,0.00
2013-4-4,59.9,54.6,50.7,55.1,50.7,45.8,90,87,82,30.10,29.96,12,2,12,0.00
2013-4-5,62.7,57.0,53.4,54.4,51.3,48.7,89,82,67,30.17,30.09,9,1,9,0.00
2013-4-6,62.4,56.0,52.7,54.3,50.5,47.3,87,82,74,30.19,30.12,12,2,12,0.00
2013-4-7,63.6,55.9,52.7,53.4,48.6,45.2,85,77,63,30.16,29.83,14,2,14,0.00
2013-4-8,55.9,46.9,0.0,46.8,36.6,-11.3,81,67,58,30.01,29.80,8,0,8,0.00
2013-4-9,77.3,62.5,49.2,46.8,41.4,38.1,69,49,25,30.09,30.00,6,0,6,0.00
2013-4-10,61.1,58.3,57.0,43.8,43.3,42.7,61,57,52,30.12,30.06,1,0,1,0.00
2013-4-13,70.8,63.4,53.2,50.6,45.4,38.8,67,52,43,29.89,29.82,10,1,10,0.00
2013-4-14,69.6,56.6,46.2,46.4,40.4,35.4,70,56,40,29.92,29.84,9,1,9,0.00
2013-4-15,62.0,53.2,46.2,44.3,39.0,34.9,75,60,42,29.94,29.84,6,0,7,0.00
2013-4-16,70.7,56.7,44.4,43.2,36.6,32.6,65,49,29,30.14,29.93,4,0,4,0.00
2013-4-17,73.4,60.7,51.0,41.4,35.4,32.0,57,40,23,30.25,30.14,5,0,5,0.00
2013-4-18,75.0,60.1,50.7,48.2,41.7,34.6,72,52,31,30.25,30.18,9,1,9,0.00
2013-4-19,70.1,59.8,49.8,52.3,47.5,43.1,81,65,48,30.22,30.05,10,1,10,0.00
2013-4-20,78.0,61.8,52.1,51.8,46.4,42.7,73,58,33,30.09,29.99,10,1,10,0.00
2013-4-21,80.4,62.3,51.0,55.2,48.2,42.7,76,62,38,30.03,29.93,8,1,8,0.00
2013-4-22,84.0,65.0,54.6,53.5,48.0,42.1,70,56,23,29.96,29.86,10,1,10,0.00
2013-4-23,78.6,61.2,49.1,47.9,41.6,30.7,80,52,24,29.93,29.84,13,2,13,0.00
2013-4-24,62.4,54.2,49.1,48.7,45.6,43.1,82,73,61,29.93,29.82,14,2,14,0.00
2013-4-25,64.2,56.4,52.1,49.8,47.0,44.0,79,71,59,30.11,29.93,10,1,10,0.00
2013-4-26,52.7,51.9,51.6,44.6,44.2,43.6,77,75,72,30.12,30.10,5,0,5,0.00
2013-4-27,63.6,56.4,50.1,51.2,47.7,45.1,83,73,62,30.20,30.06,12,3,12,0.00
2013-4-28,72.8,59.5,49.2,54.6,49.4,44.2,84,71,53,30.06,29.87,9,2,9,0.00
2013-4-29,75.3,64.2,53.4,57.0,51.3,46.7,81,64,48,29.89,29.76,10,1,10,0.00
2013-4-30,72.1,63.1,53.2,53.6,48.6,36.7,79,61,37,29.84,29.78,10,1,10,0.00
2013-5-1,82.9,68.3,58.6,50.9,40.0,28.7,62,37,21,30.07,29.82,8,1,8,0.00
2013-5-2,91.2,69.6,53.9,50.0,44.2,35.0,63,43,20,30.14,30.07,7,1,7,0.00
2013-5-3,82.5,66.5,56.1,53.2,48.1,39.5,72,53,32,30.08,29.79,9,1,9,0.00
2013-5-4,73.7,61.0,54.3,53.6,49.5,46.8,79,67,43,29.79,29.59,11,2,11,0.00
2013-5-5,66.7,60.0,55.0,54.4,48.3,45.4,75,66,57,29.80,29.59,10,1,10,0.00
2013-5-6,70.8,62.2,56.1,52.8,49.9,47.5,74,64,50,29.96,29.79,12,0,12,0.00
2013-5-7,71.9,61.3,54.5,54.8,51.3,48.9,82,70,53,30.04,29.94,10,2,10,0.00
2013-5-8,63.8,57.0,52.8,51.6,48.8,46.0,83,75,64,30.13,30.03,12,2,12,0.00
2013-5-9,66.0,57.0,52.1,52.0,48.1,46.0,80,73,60,30.16,30.08,13,3,13,0.00
2013-5-10,61.5,54.8,50.9,51.5,48.4,45.9,84,79,69,30.17,30.10,15,4,15,0.00
2013-5-11,69.2,57.0,51.6,56.9,50.1,46.9,86,78,61,30.14,30.06,13,2,13,0.00
2013-5-12,68.0,58.9,52.5,55.8,51.5,47.6,87,77,63,30.13,30.03,11,2,11,0.00
2013-5-13,69.0,59.5,51.9,56.1,51.0,47.2,85,74,62,30.08,29.94,12,3,12,0.00
2013-5-14,66.9,58.8,52.5,52.3,48.5,44.1,83,69,56,29.98,29.90,17,4,17,0.00
2013-5-15,67.8,58.3,49.6,51.3,47.2,43.1,80,67,52,30.03,29.96,15,3,15,0.00
2013-5-16,68.9,58.7,54.1,55.9,51.0,46.8,84,76,58,30.02,29.96,13,2,13,0.00
2013-6-7,69.9,61.8,57.5,55.5,51.7,50.0,77,70,59,29.75,29.72,9,2,9,0.00
2013-6-8,70.1,60.1,53.6,55.5,51.9,49.1,86,75,58,29.81,29.71,15,3,15,0.00
2013-6-9,63.8,58.8,56.4,53.9,52.2,51.2,84,79,69,29.88,29.80,18,2,18,0.00
2013-6-10,67.1,60.1,55.2,53.4,51.5,49.1,87,74,60,29.95,29.80,14,1,14,0.00
2013-6-11,71.2,61.6,57.0,55.1,51.4,48.9,78,70,57,29.98,29.88,13,1,13,0.00
2013-6-12,74.3,62.9,53.2,53.9,50.0,46.9,80,64,46,29.98,29.88,13,1,13,0.00
2013-6-13,75.7,63.8,52.5,53.5,49.3,44.8,76,60,41,30.08,29.97,10,1,10,0.00
2013-6-14,75.9,62.9,53.9,55.6,50.3,47.0,79,65,45,29.98,29.83,10,2,10,0.00
2013-6-15,62.4,55.1,51.6,51.1,48.1,46.4,83,77,65,29.98,29.82,19,4,19,0.00
2013-6-16,71.7,60.0,51.2,55.8,50.4,46.5,85,71,55,30.07,29.96,15,3,15,0.00
2013-6-17,78.6,63.5,52.5,58.4,52.1,47.7,86,68,46,30.07,30.01,12,2,12,0.00
2013-6-18,73.5,63.1,55.4,52.1,48.9,46.6,82,62,42,30.01,29.97,8,1,8,0.00
2013-6-19,77.7,64.0,52.8,52.2,47.3,43.7,72,56,37,30.04,29.98,12,1,12,0.00
2013-6-20,76.8,64.8,54.5,53.1,47.9,43.8,74,56,35,30.01,29.94,11,1,11,0.00
2013-6-21,71.4,62.5,53.9,53.8,50.1,46.0,77,64,51,29.98,29.90,13,2,13,0.00
2013-6-22,73.0,63.4,55.2,54.8,51.2,47.0,78,65,51,29.93,29.84,11,2,11,0.00
2013-6-23,60.4,58.0,54.8,56.5,53.4,50.0,88,85,77,29.87,29.81,14,2,14,0.00
2013-6-24,59.5,57.2,55.2,55.3,53.2,51.0,89,86,82,29.89,29.77,7,0,7,0.00
2013-6-25,66.9,61.9,57.5,63.1,58.6,54.3,92,89,84,29.97,29.85,8,1,8,0.00
2013-6-26,76.2,66.9,60.4,64.3,59.8,56.8,91,79,63,30.05,29.95,8,1,8,0.00
2013-6-27,80.4,69.3,59.7,62.9,58.9,54.8,87,71,54,30.08,30.01,8,1,8,0.00
2013-6-28,76.2,66.8,59.3,61.6,56.5,53.5,84,70,56,30.03,29.89,16,2,16,0.00
2013-6-29,78.9,67.6,59.3,60.3,56.5,53.2,81,69,50,29.91,29.85,13,2,13,0.00
2013-7-2,72.3,62.6,57.3,58.9,54.9,52.7,87,76,62,29.92,29.87,19,5,19,0.00
2013-7-3,77.7,64.9,57.3,61.8,56.1,53.3,88,75,53,29.91,29.77,12,2,12,0.00
2013-7-4,73.2,65.9,59.5,59.4,55.2,51.1,85,69,58,29.78,29.69,14,2,14,0.00
2013-7-5,65.6,58.9,54.8,53.1,50.5,48.9,82,74,62,29.76,29.69,19,6,19,0.00
2013-7-6,66.2,58.2,54.3,53.5,50.6,49.1,84,76,63,29.79,29.73,19,4,19,0.00
2013-7-7,69.2,59.7,55.4,55.0,51.7,49.7,83,75,60,29.85,29.76,15,3,15,0.00
2013-7-8,69.4,60.3,55.2,55.5,52.1,49.7,84,75,47,29.96,29.84,15,2,15,0.00
2013-7-9,74.4,61.7,53.4,59.5,53.4,49.6,88,76,55,30.01,29.92,22,2,22,0.00
2013-7-10,67.6,58.0,53.6,54.5,51.4,49.5,87,79,63,29.97,29.90,16,4,16,0.00
2013-7-11,62.4,55.6,51.9,52.7,49.8,47.8,87,81,69,29.93,29.87,21,4,21,0.00
2013-7-12,64.0,57.1,54.1,53.2,50.5,48.9,84,79,66,29.92,29.86,18,4,18,0.00
2013-7-13,67.8,58.7,53.9,54.2,51.3,49.2,85,77,62,29.95,29.85,13,4,13,0.00
2013-7-14,63.5,56.7,53.4,53.2,50.5,49.0,86,80,68,29.97,29.88,16,5,16,0.00
2013-7-15,63.3,56.0,51.2,53.7,50.1,47.4,87,81,69,29.90,29.82,14,4,14,0.00
2013-7-16,66.3,59.3,54.6,55.9,52.1,48.6,86,77,67,29.99,29.82,13,3,13,0.00
2013-7-17,68.1,60.5,55.2,56.2,52.7,50.6,85,76,65,30.06,29.98,14,3,14,0.00
2013-7-18,67.2,58.3,54.3,55.2,51.8,49.8,86,80,65,30.03,29.91,14,4,14,0.00
2013-7-19,67.8,58.4,54.3,55.4,51.7,49.5,86,79,64,29.92,29.81,16,4,16,0.00
2013-7-20,66.0,57.0,52.8,54.7,50.9,48.7,88,81,65,29.82,29.73,15,4,15,0.00
2013-7-21,62.9,55.9,52.8,53.6,50.7,48.7,87,83,70,29.85,29.72,16,4,16,0.00
2013-7-22,65.4,57.9,53.9,56.6,53.2,50.1,90,85,72,29.90,29.83,11,2,11,0.00
2013-10-4,81.5,75.4,64.5,40.9,37.7,33.9,33,26,21,30.00,29.95,9,0,9,0.00
2013-10-5,85.8,72.2,62.4,41.7,35.2,28.4,35,26,19,30.10,29.99,12,0,12,0.00
2013-10-6,83.8,66.1,56.8,49.1,38.9,33.8,49,37,25,30.02,29.90,7,0,7,0.00
2013-10-7,75.0,64.2,57.0,48.7,42.4,34.5,68,46,32,29.91,29.80,10,1,10,0.00
2013-10-8,67.1,59.2,52.8,51.7,47.4,44.6,79,66,47,29.81,29.67,11,1,11,0.00
2013-10-10,63.1,56.3,52.3,50.8,47.5,44.5,82,73,64,29.91,29.67,13,1,13,0.00
2013-10-11,62.9,54.8,51.6,49.9,47.4,45.8,84,77,61,29.99,29.88,10,1,10,0.00
2013-10-12,60.6,53.9,50.1,50.9,47.1,44.8,86,78,68,29.90,29.81,16,2,16,0.00
2013-10-13,70.7,58.5,50.0,53.0,47.7,44.0,84,69,45,29.96,29.81,8,0,8,0.00
2013-10-14,79.8,63.6,50.7,51.5,45.6,38.3,77,55,30,30.01,29.92,6,0,6,0.00
2013-10-15,81.6,66.5,52.8,50.5,39.8,35.3,63,39,23,29.94,29.87,7,0,7,0.00
2013-10-16,81.1,66.3,54.3,46.9,40.0,35.3,58,40,26,29.99,29.90,6,0,6,0.00
2013-10-17,78.6,64.6,54.8,47.7,41.2,33.6,69,43,30,29.98,29.89,6,0,6,0.00
2013-10-18,68.9,58.2,52.3,53.2,48.5,45.5,81,71,55,29.95,29.89,7,1,7,0.00
2013-10-19,74.8,59.8,51.4,54.4,48.9,44.9,81,69,47,29.93,29.90,7,1,7,0.00
2013-10-20,64.2,54.8,50.1,52.6,48.1,45.2,85,78,63,29.93,29.81,11,2,11,0.00
2013-10-21,53.9,50.5,49.8,48.5,46.2,45.7,87,85,82,29.90,29.83,7,2,7,0.00
2013-10-26,70.8,61.5,52.1,55.2,50.8,46.9,84,69,56,29.98,29.91,9,1,9,0.00
2013-10-27,52.8,50.6,49.2,48.3,46.6,45.6,88,86,82,29.93,29.81,15,4,15,0.00
2013-11-10,62.7,57.3,52.3,50.6,47.4,12.1,79,70,19,30.00,29.94,7,1,7,0.00
2013-11-11,65.1,56.0,50.7,52.9,48.0,44.4,82,75,63,30.04,29.93,5,0,5,0.00
2013-11-12,68.5,59.8,55.5,54.1,47.9,45.4,75,65,50,30.14,30.01,2,0,2,0.00
2013-11-13,67.8,56.5,51.9,54.5,49.2,45.6,86,77,61,30.12,29.99,9,1,9,0.00
2013-11-14,59.5,54.3,51.4,52.1,48.6,42.0,88,81,70,30.00,29.74,10,2,10,0.00
2013-11-15,62.4,53.6,46.7,45.9,42.3,38.9,79,66,49,29.75,29.62,9,1,9,0.00
2013-11-16,61.7,53.7,47.4,48.8,44.7,41.9,82,72,54,29.80,29.63,9,1,9,0.00
2013-11-17,59.9,53.5,49.6,47.9,45.9,44.3,84,76,64,29.95,29.79,8,1,8,0.00
2013-11-18,57.3,52.6,48.7,47.8,45.6,43.1,83,77,67,30.03,29.93,8,1,8,0.00
2013-11-19,56.8,54.7,52.3,52.5,49.3,45.1,89,82,74,29.98,29.81,10,2,10,0.00
2013-11-20,57.3,55.4,52.5,54.4,52.3,48.7,91,90,87,29.81,29.70,9,1,9,0.00
2013-11-21,60.6,54.8,51.0,48.9,39.9,27.6,88,61,37,29.85,29.75,8,0,8,0.00
2013-11-22,54.3,54.1,53.7,27.9,24.0,20.7,37,31,27,29.85,29.82,8,1,8,0.00
2013-11-26,62.9,57.3,51.9,44.3,40.3,36.2,62,53,46,30.09,29.88,9,1,9,0.00
2013-11-27,63.6,56.7,51.0,46.1,42.5,39.9,69,59,52,29.88,29.71,12,1,12,0.00
2013-11-28,69.6,58.9,53.2,48.4,42.0,38.2,63,54,43,29.92,29.71,9,0,9,0.00
2013-11-29,68.5,56.5,48.9,49.0,43.2,38.7,71,62,49,30.02,29.91,5,0,5,0.00
2013-12-3,54.5,49.4,43.3,35.9,33.5,31.2,63,55,48,29.78,29.68,3,0,3,0.00
2013-12-4,53.7,45.1,39.3,31.5,25.3,17.4,67,47,34,29.90,29.76,7,0,7,0.00
2013-12-5,51.8,43.1,36.8,28.7,21.8,16.3,61,43,33,29.98,29.88,6,0,6,0.00
2013-12-6,50.1,44.6,38.4,45.3,33.6,26.7,87,66,47,30.01,29.72,16,2,16,0.00
2013-12-7,49.1,43.6,39.3,43.5,32.3,27.8,84,65,47,30.06,29.74,6,0,6,0.00
2013-12-8,47.1,40.1,35.4,29.0,24.3,19.7,67,54,42,30.12,30.03,8,1,8,0.00
2013-12-9,50.1,41.0,34.5,24.7,19.8,15.5,53,43,31,30.20,30.09,13,0,13,0.00
2013-12-10,54.1,46.9,38.4,33.4,26.3,0.0,57,45,29,30.19,30.00,8,0,8,0.00
2013-12-11,55.9,47.8,41.1,32.0,27.8,24.3,58,46,38,30.03,29.96,12,1,12,0.00
2013-12-12,46.2,45.5,45.3,30.2,29.6,28.5,55,54,50,30.00,29.98,5,0,5,0.00
2013-12-17,55.2,53.3,51.4,39.3,37.7,36.3,57,56,52,30.02,29.99,0,0,0,0.00
2013-12-18,54.5,50.2,46.7,45.6,40.3,34.1,80,69,54,30.00,29.74,14,1,14,0.00
2013-12-19,61.3,51.4,44.9,42.1,33.8,21.5,78,54,33,29.91,29.69,5,0,5,0.00
2013-12-20,58.2,49.7,42.6,36.4,28.3,21.1,54,44,32,29.98,29.89,6,0,6,0.00
2013-12-21,64.5,52.6,46.2,50.7,41.4,30.0,78,66,49,30.05,29.93,5,0,5,0.00
2013-12-22,67.8,55.0,45.5,44.7,39.9,36.5,79,58,42,30.25,30.05,8,0,8,0.00
2013-12-23,64.2,54.2,47.1,43.2,38.5,35.1,67,56,44,30.35,30.24,6,0,6,0.00
2013-12-24,65.8,55.1,48.0,48.5,40.3,36.7,67,58,48,30.30,30.18,3,0,3,0.00
2013-12-25,65.1,56.5,50.5,42.6,37.5,33.4,62,50,41,30.25,30.17,11,0,11,0.00
2013-12-26,66.7,55.1,46.0,44.8,36.5,31.4,73,51,36,30.22,30.13,7,0,7,0.00
2013-12-27,60.2,52.1,46.0,43.1,36.7,31.9,65,56,47,30.19,30.09,3,0,3,0.00
2013-12-28,64.9,52.1,44.9,42.1,35.8,30.1,64,54,38,30.11,30.00,3,0,3,0.00
2013-12-29,64.9,55.2,47.6,35.1,28.6,24.1,57,37,27,30.14,30.05,10,1,10,0.00
2013-12-30,66.0,53.1,45.3,44.6,37.2,29.7,73,55,42,30.23,30.12,5,0,5,0.00
2013-12-31,62.0,51.2,44.7,47.2,38.6,35.4,75,63,41,30.24,30.13,3,0,3,0.00
2014-1-1,60.9,51.2,43.7,44.7,38.0,34.4,72,61,52,30.18,30.10,2,0,2,0.00
2014-1-2,67.2,55.6,47.1,39.6,36.1,32.8,60,49,35,30.15,30.02,6,0,6,0.00